Corral, Idaho
Current Conditions -  °F | °C
As of 9:47 AM on Thursday 30 Oct 2014 (Local Time) from KSUN Reporting Station
Scattered Clouds Scattered Clouds  
Wind Chill: 36°   Ceiling: Unl
Heat Index: 43°   Visibility: 10mi
Dew Point: 25°   Wind: 13mph
Humidity: 49%   Direction: 310°NW
Pressure: 30.31"   Gusts: NA
Location:  43.34°N, 114.95°W
Report Text: KSUN 301547Z 31011KT 10SM SCT100 06/M04 A3031
Loading
Personal Weather Stations






























Interactive Weather Map
Tropical Storm Tracking
New forecast layout! Learn more

10-Day Weather Forecast

Advertisements
Track Severe Weather on mobile